Dnipropetrovs'k, Ukraine
Current Conditions -  °F | °C
As of 7:00 PM on Friday 28 Nov 2014 (Local Time) from UKDD Reporting Station
Light Snow Light Snow  
Wind Chill: 28°   Ceiling: 900
Heat Index: 28°   Visibility: 6mi
Dew Point: 27°   Wind: 0mph
Humidity: 93%   Direction: NA
Pressure: 30.3"   Gusts: NA
Location:  48.34°N, 34.91°E
Report Text: UKDD 281600Z 00000MPS 9999 -SN OVC009 M02/M03 Q1026 08350054 TEMPO 1100 SN BR OVC004
Loading
Personal Weather Stations






























Interactive Weather Map New forecast layout! Learn more

10-Day Weather Forecast

Advertisements
Track Severe Weather on mobile